sensor_id;sensor_type;location;lat;lon;timestamp;pressure;altitude;pressure_sealevel;temperature;humidity
48718;BME280;34521;33.042;-96.586;2024-01-30T00:01:33;100282.85;;;25.71;21.99
48718;BME280;34521;33.042;-96.586;2024-01-30T00:03:58;100281.08;;;25.90;21.77
48718;BME280;34521;33.042;-96.586;2024-01-30T00:06:24;100282.47;;;25.42;21.83
48718;BME280;34521;33.042;-96.586;2024-01-30T00:08:49;100284.81;;;25.22;22.05
48718;BME280;34521;33.042;-96.586;2024-01-30T00:11:15;100288.11;;;25.62;21.17
48718;BME280;34521;33.042;-96.586;2024-01-30T00:13:40;100290.79;;;25.99;20.76
48718;BME280;34521;33.042;-96.586;2024-01-30T00:16:07;100290.76;;;25.99;20.63
48718;BME280;34521;33.042;-96.586;2024-01-30T00:18:33;100289.77;;;25.96;20.63
48718;BME280;34521;33.042;-96.586;2024-01-30T00:20:56;100294.24;;;25.89;20.82
48718;BME280;34521;33.042;-96.586;2024-01-30T00:23:22;100293.10;;;25.88;21.07
48718;BME280;34521;33.042;-96.586;2024-01-30T00:25:47;100295.66;;;25.46;21.30
48718;BME280;34521;33.042;-96.586;2024-01-30T00:28:14;100302.57;;;26.13;21.08
48718;BME280;34521;33.042;-96.586;2024-01-30T00:30:40;100305.69;;;25.93;21.12
48718;BME280;34521;33.042;-96.586;2024-01-30T00:33:04;100307.12;;;26.07;21.02
48718;BME280;34521;33.042;-96.586;2024-01-30T00:35:30;100308.92;;;25.69;21.08
48718;BME280;34521;33.042;-96.586;2024-01-30T00:37:55;100314.68;;;25.91;20.90
48718;BME280;34521;33.042;-96.586;2024-01-30T00:40:21;100318.27;;;25.81;20.95
48718;BME280;34521;33.042;-96.586;2024-01-30T00:42:46;100314.33;;;26.17;21.15
48718;BME280;34521;33.042;-96.586;2024-01-30T00:45:14;100315.26;;;26.12;20.91
48718;BME280;34521;33.042;-96.586;2024-01-30T00:47:38;100317.51;;;26.34;20.72
48718;BME280;34521;33.042;-96.586;2024-01-30T00:50:02;100320.52;;;26.40;20.85
48718;BME280;34521;33.042;-96.586;2024-01-30T00:52:28;100324.78;;;25.79;20.94
48718;BME280;34521;33.042;-96.586;2024-01-30T00:54:53;100325.80;;;25.46;21.20
48718;BME280;34521;33.042;-96.586;2024-01-30T00:57:19;100327.91;;;25.82;20.94
48718;BME280;34521;33.042;-96.586;2024-01-30T00:59:45;100327.09;;;25.35;21.30
48718;BME280;34521;33.042;-96.586;2024-01-30T01:02:11;100327.23;;;25.17;21.46
48718;BME280;34521;33.042;-96.586;2024-01-30T01:04:37;100331.49;;;24.57;22.11
48718;BME280;34521;33.042;-96.586;2024-01-30T01:07:01;100333.16;;;23.55;23.14
48718;BME280;34521;33.042;-96.586;2024-01-30T01:09:27;100328.98;;;25.20;21.43
48718;BME280;34521;33.042;-96.586;2024-01-30T01:11:53;100333.35;;;26.49;20.66
48718;BME280;34521;33.042;-96.586;2024-01-30T01:14:17;100339.52;;;25.93;21.48
48718;BME280;34521;33.042;-96.586;2024-01-30T01:16:43;100340.48;;;25.19;21.70
48718;BME280;34521;33.042;-96.586;2024-01-30T01:19:07;100343.97;;;25.52;21.87
48718;BME280;34521;33.042;-96.586;2024-01-30T01:21:33;100346.53;;;25.19;22.30
48718;BME280;34521;33.042;-96.586;2024-01-30T01:23:59;100348.53;;;25.49;22.12
48718;BME280;34521;33.042;-96.586;2024-01-30T01:26:25;100350.17;;;25.46;21.92
48718;BME280;34521;33.042;-96.586;2024-01-30T01:28:51;100350.82;;;26.17;21.32
48718;BME280;34521;33.042;-96.586;2024-01-30T01:31:16;100346.91;;;26.16;21.33
48718;BME280;34521;33.042;-96.586;2024-01-30T01:33:40;100345.73;;;25.40;21.64
48718;BME280;34521;33.042;-96.586;2024-01-30T01:36:06;100346.14;;;25.72;21.48
48718;BME280;34521;33.042;-96.586;2024-01-30T01:38:32;100343.81;;;25.87;21.60
48718;BME280;34521;33.042;-96.586;2024-01-30T01:40:57;100346.13;;;26.00;21.78
48718;BME280;34521;33.042;-96.586;2024-01-30T01:43:21;100351.37;;;24.32;22.76
48718;BME280;34521;33.042;-96.586;2024-01-30T01:45:48;100346.77;;;25.62;21.43
48718;BME280;34521;33.042;-96.586;2024-01-30T01:48:15;100343.78;;;25.79;21.32
48718;BME280;34521;33.042;-96.586;2024-01-30T01:50:39;100346.37;;;26.10;21.10
48718;BME280;34521;33.042;-96.586;2024-01-30T01:53:07;100349.30;;;25.74;21.02
48718;BME280;34521;33.042;-96.586;2024-01-30T01:55:30;100352.44;;;25.78;21.21
48718;BME280;34521;33.042;-96.586;2024-01-30T01:57:55;100357.86;;;25.51;21.32
48718;BME280;34521;33.042;-96.586;2024-01-30T02:00:21;100362.51;;;25.78;21.31
48718;BME280;34521;33.042;-96.586;2024-01-30T02:02:47;100357.15;;;25.56;21.70
48718;BME280;34521;33.042;-96.586;2024-01-30T02:05:12;100363.19;;;24.75;21.89
48718;BME280;34521;33.042;-96.586;2024-01-30T02:07:36;100358.26;;;25.05;21.49
48718;BME280;34521;33.042;-96.586;2024-01-30T02:10:02;100362.50;;;25.73;20.85
48718;BME280;34521;33.042;-96.586;2024-01-30T02:12:27;100361.90;;;25.78;20.89
48718;BME280;34521;33.042;-96.586;2024-01-30T02:14:53;100365.79;;;25.81;20.91
48718;BME280;34521;33.042;-96.586;2024-01-30T02:17:17;100369.73;;;25.89;21.10
48718;BME280;34521;33.042;-96.586;2024-01-30T02:19:43;100371.82;;;25.70;21.22
48718;BME280;34521;33.042;-96.586;2024-01-30T02:22:08;100371.70;;;25.80;21.35
48718;BME280;34521;33.042;-96.586;2024-01-30T02:24:34;100372.21;;;25.95;21.19
48718;BME280;34521;33.042;-96.586;2024-01-30T02:26:59;100371.95;;;25.53;21.38
48718;BME280;34521;33.042;-96.586;2024-01-30T02:29:24;100377.69;;;25.41;21.28
48718;BME280;34521;33.042;-96.586;2024-01-30T02:31:49;100379.40;;;25.90;21.22
48718;BME280;34521;33.042;-96.586;2024-01-30T02:34:15;100379.50;;;25.81;21.30
48718;BME280;34521;33.042;-96.586;2024-01-30T02:36:43;100387.41;;;24.94;21.60
48718;BME280;34521;33.042;-96.586;2024-01-30T02:39:06;100386.68;;;25.93;20.88
48718;BME280;34521;33.042;-96.586;2024-01-30T02:41:31;100386.19;;;25.62;20.78
48718;BME280;34521;33.042;-96.586;2024-01-30T02:43:56;100384.62;;;25.93;20.70
48718;BME280;34521;33.042;-96.586;2024-01-30T02:46:22;100379.90;;;25.64;20.97
48718;BME280;34521;33.042;-96.586;2024-01-30T02:48:48;100377.54;;;25.77;21.14
48718;BME280;34521;33.042;-96.586;2024-01-30T02:51:14;100376.83;;;25.53;20.93
48718;BME280;34521;33.042;-96.586;2024-01-30T02:53:39;100372.36;;;25.94;21.05
48718;BME280;34521;33.042;-96.586;2024-01-30T02:56:06;100375.86;;;25.51;20.99
48718;BME280;34521;33.042;-96.586;2024-01-30T02:58:29;100384.63;;;24.44;22.09
48718;BME280;34521;33.042;-96.586;2024-01-30T03:00:55;100381.80;;;22.52;23.91
48718;BME280;34521;33.042;-96.586;2024-01-30T03:03:20;100381.08;;;21.88;25.08
48718;BME280;34521;33.042;-96.586;2024-01-30T03:05:45;100379.45;;;24.15;22.48
48718;BME280;34521;33.042;-96.586;2024-01-30T03:08:11;100367.57;;;25.13;21.10
48718;BME280;34521;33.042;-96.586;2024-01-30T03:10:36;100365.97;;;25.46;20.73
48718;BME280;34521;33.042;-96.586;2024-01-30T03:13:01;100372.11;;;25.22;21.20
48718;BME280;34521;33.042;-96.586;2024-01-30T03:15:28;100367.12;;;25.58;20.68
48718;BME280;34521;33.042;-96.586;2024-01-30T03:17:54;100365.87;;;25.53;20.72
48718;BME280;34521;33.042;-96.586;2024-01-30T03:20:18;100367.52;;;25.70;20.86
48718;BME280;34521;33.042;-96.586;2024-01-30T03:22:44;100368.38;;;25.78;20.70
48718;BME280;34521;33.042;-96.586;2024-01-30T03:25:08;100369.53;;;25.53;20.89
48718;BME280;34521;33.042;-96.586;2024-01-30T03:27:35;100368.20;;;25.90;21.00
48718;BME280;34521;33.042;-96.586;2024-01-30T03:30:01;100361.44;;;25.72;20.94
48718;BME280;34521;33.042;-96.586;2024-01-30T03:32:26;100355.75;;;26.05;20.86
48718;BME280;34521;33.042;-96.586;2024-01-30T03:34:50;100357.92;;;25.86;21.08
48718;BME280;34521;33.042;-96.586;2024-01-30T03:37:15;100358.77;;;25.83;21.13
48718;BME280;34521;33.042;-96.586;2024-01-30T03:39:40;100367.07;;;23.62;22.58
48718;BME280;34521;33.042;-96.586;2024-01-30T03:42:06;100357.62;;;25.48;21.13
48718;BME280;34521;33.042;-96.586;2024-01-30T03:44:32;100358.81;;;25.81;20.70
48718;BME280;34521;33.042;-96.586;2024-01-30T03:46:57;100358.80;;;25.76;20.72
48718;BME280;34521;33.042;-96.586;2024-01-30T03:49:23;100358.25;;;25.08;21.52
48718;BME280;34521;33.042;-96.586;2024-01-30T03:51:48;100355.33;;;25.18;21.31
48718;BME280;34521;33.042;-96.586;2024-01-30T03:54:15;100359.87;;;24.79;21.40
48718;BME280;34521;33.042;-96.586;2024-01-30T03:56:40;100364.22;;;24.58;22.03
48718;BME280;34521;33.042;-96.586;2024-01-30T03:59:05;100363.76;;;25.59;21.04
48718;BME280;34521;33.042;-96.586;2024-01-30T04:01:31;100364.43;;;25.81;21.01
48718;BME280;34521;33.042;-96.586;2024-01-30T04:03:55;100371.89;;;24.98;21.67
48718;BME280;34521;33.042;-96.586;2024-01-30T04:06:22;100369.11;;;23.66;22.30
48718;BME280;34521;33.042;-96.586;2024-01-30T04:08:47;100363.00;;;25.19;21.32
48718;BME280;34521;33.042;-96.586;2024-01-30T04:11:13;100354.40;;;25.69;20.40
48718;BME280;34521;33.042;-96.586;2024-01-30T04:13:39;100356.74;;;25.65;20.59
48718;BME280;34521;33.042;-96.586;2024-01-30T04:16:03;100354.27;;;25.73;20.46
48718;BME280;34521;33.042;-96.586;2024-01-30T04:18:30;100355.09;;;25.57;20.83
48718;BME280;34521;33.042;-96.586;2024-01-30T04:20:55;100354.57;;;25.36;20.71
48718;BME280;34521;33.042;-96.586;2024-01-30T04:23:23;100354.20;;;25.36;20.86
48718;BME280;34521;33.042;-96.586;2024-01-30T04:25:46;100356.53;;;25.27;20.75
48718;BME280;34521;33.042;-96.586;2024-01-30T04:28:12;100355.14;;;25.15;21.21
48718;BME280;34521;33.042;-96.586;2024-01-30T04:30:37;100354.67;;;24.54;21.76
48718;BME280;34521;33.042;-96.586;2024-01-30T04:33:02;100351.92;;;25.64;20.88
48718;BME280;34521;33.042;-96.586;2024-01-30T04:35:26;100349.93;;;25.91;20.59
48718;BME280;34521;33.042;-96.586;2024-01-30T04:37:53;100347.80;;;25.44;20.78
48718;BME280;34521;33.042;-96.586;2024-01-30T04:40:18;100351.81;;;23.81;22.20
48718;BME280;34521;33.042;-96.586;2024-01-30T04:42:43;100343.04;;;25.45;20.94
48718;BME280;34521;33.042;-96.586;2024-01-30T04:45:10;100343.26;;;25.87;20.48
48718;BME280;34521;33.042;-96.586;2024-01-30T04:47:35;100341.61;;;25.43;20.62
48718;BME280;34521;33.042;-96.586;2024-01-30T04:50:00;100345.26;;;25.41;20.59
48718;BME280;34521;33.042;-96.586;2024-01-30T04:52:26;100348.51;;;24.93;21.03
48718;BME280;34521;33.042;-96.586;2024-01-30T04:54:51;100349.42;;;25.14;21.11
48718;BME280;34521;33.042;-96.586;2024-01-30T04:57:15;100350.66;;;25.19;21.04
48718;BME280;34521;33.042;-96.586;2024-01-30T04:59:42;100350.69;;;25.19;21.04
48718;BME280;34521;33.042;-96.586;2024-01-30T05:02:06;100351.78;;;24.68;21.44
48718;BME280;34521;33.042;-96.586;2024-01-30T05:04:31;100353.89;;;24.02;22.04
48718;BME280;34521;33.042;-96.586;2024-01-30T05:06:56;100351.66;;;24.73;21.37
48718;BME280;34521;33.042;-96.586;2024-01-30T05:09:23;100346.37;;;25.82;20.40
48718;BME280;34521;33.042;-96.586;2024-01-30T05:11:47;100349.31;;;25.38;20.34
48718;BME280;34521;33.042;-96.586;2024-01-30T05:14:13;100352.41;;;24.43;21.27
48718;BME280;34521;33.042;-96.586;2024-01-30T05:16:38;100353.37;;;24.58;21.02
48718;BME280;34521;33.042;-96.586;2024-01-30T05:19:03;100353.95;;;24.23;21.52
48718;BME280;34521;33.042;-96.586;2024-01-30T05:21:29;100343.89;;;25.08;20.78
48718;BME280;34521;33.042;-96.586;2024-01-30T05:23:54;100352.24;;;23.73;22.11
48718;BME280;34521;33.042;-96.586;2024-01-30T05:26:19;100348.86;;;25.02;21.08
48718;BME280;34521;33.042;-96.586;2024-01-30T05:28:44;100343.49;;;25.23;20.51
48718;BME280;34521;33.042;-96.586;2024-01-30T05:31:10;100344.61;;;25.65;20.19
48718;BME280;34521;33.042;-96.586;2024-01-30T05:33:36;100347.59;;;24.72;21.16
48718;BME280;34521;33.042;-96.586;2024-01-30T05:36:01;100345.07;;;24.61;21.23
48718;BME280;34521;33.042;-96.586;2024-01-30T05:38:25;100345.12;;;24.73;21.21
48718;BME280;34521;33.042;-96.586;2024-01-30T05:40:50;100346.39;;;24.75;21.01
48718;BME280;34521;33.042;-96.586;2024-01-30T05:43:17;100347.80;;;23.76;21.81
48718;BME280;34521;33.042;-96.586;2024-01-30T05:45:42;100341.49;;;24.87;21.04
48718;BME280;34521;33.042;-96.586;2024-01-30T05:48:07;100333.09;;;24.67;20.70
48718;BME280;34521;33.042;-96.586;2024-01-30T05:50:34;100339.99;;;24.93;20.93
48718;BME280;34521;33.042;-96.586;2024-01-30T05:53:00;100334.10;;;25.34;20.32
48718;BME280;34521;33.042;-96.586;2024-01-30T05:55:24;100333.37;;;25.29;20.39
48718;BME280;34521;33.042;-96.586;2024-01-30T05:57:49;100334.54;;;24.97;20.80
48718;BME280;34521;33.042;-96.586;2024-01-30T06:00:16;100332.54;;;25.23;20.44
48718;BME280;34521;33.042;-96.586;2024-01-30T06:02:40;100333.98;;;25.38;20.49
48718;BME280;34521;33.042;-96.586;2024-01-30T06:05:06;100342.71;;;24.76;21.04
48718;BME280;34521;33.042;-96.586;2024-01-30T06:07:32;100349.63;;;23.43;21.72
48718;BME280;34521;33.042;-96.586;2024-01-30T06:09:57;100348.96;;;24.50;21.21
48718;BME280;34521;33.042;-96.586;2024-01-30T06:12:23;100345.81;;;25.69;20.19
48718;BME280;34521;33.042;-96.586;2024-01-30T06:14:48;100351.53;;;25.50;20.08
48718;BME280;34521;33.042;-96.586;2024-01-30T06:17:13;100357.38;;;24.40;21.00
48718;BME280;34521;33.042;-96.586;2024-01-30T06:19:39;100358.63;;;25.00;20.49
48718;BME280;34521;33.042;-96.586;2024-01-30T06:22:04;100358.50;;;24.81;20.64
48718;BME280;34521;33.042;-96.586;2024-01-30T06:24:29;100353.38;;;25.00;20.70
48718;BME280;34521;33.042;-96.586;2024-01-30T06:26:54;100356.94;;;24.25;21.38
48718;BME280;34521;33.042;-96.586;2024-01-30T06:29:20;100356.59;;;24.87;20.84
48718;BME280;34521;33.042;-96.586;2024-01-30T06:31:47;100352.84;;;25.49;20.22
48718;BME280;34521;33.042;-96.586;2024-01-30T06:34:11;100358.83;;;25.75;19.94
48718;BME280;34521;33.042;-96.586;2024-01-30T06:36:36;100365.97;;;24.17;21.23
48718;BME280;34521;33.042;-96.586;2024-01-30T06:39:04;100363.26;;;24.86;20.53
48718;BME280;34521;33.042;-96.586;2024-01-30T06:41:26;100360.18;;;25.39;20.29
48718;BME280;34521;33.042;-96.586;2024-01-30T06:43:54;100363.34;;;24.73;20.81
48718;BME280;34521;33.042;-96.586;2024-01-30T06:46:17;100361.85;;;24.38;20.88
48718;BME280;34521;33.042;-96.586;2024-01-30T06:48:44;100355.63;;;25.40;20.27
48718;BME280;34521;33.042;-96.586;2024-01-30T06:51:09;100359.18;;;25.45;19.91
48718;BME280;34521;33.042;-96.586;2024-01-30T06:53:34;100364.93;;;24.36;20.79
48718;BME280;34521;33.042;-96.586;2024-01-30T06:56:01;100363.34;;;25.22;20.35
48718;BME280;34521;33.042;-96.586;2024-01-30T06:58:26;100357.45;;;24.74;20.69
48718;BME280;34521;33.042;-96.586;2024-01-30T07:00:52;100356.25;;;23.37;21.90
48718;BME280;34521;33.042;-96.586;2024-01-30T07:03:18;100358.29;;;23.90;21.00
48718;BME280;34521;33.042;-96.586;2024-01-30T07:05:43;100356.68;;;24.83;20.37
48718;BME280;34521;33.042;-96.586;2024-01-30T07:08:07;100353.08;;;25.64;19.88
48718;BME280;34521;33.042;-96.586;2024-01-30T07:10:34;100352.60;;;24.58;20.74
48718;BME280;34521;33.042;-96.586;2024-01-30T07:12:58;100348.88;;;24.82;20.53
48718;BME280;34521;33.042;-96.586;2024-01-30T07:15:24;100341.45;;;24.48;20.86
48718;BME280;34521;33.042;-96.586;2024-01-30T07:17:49;100333.12;;;24.43;20.88
48718;BME280;34521;33.042;-96.586;2024-01-30T07:20:14;100326.63;;;24.83;20.36
48718;BME280;34521;33.042;-96.586;2024-01-30T07:22:43;100323.04;;;24.37;20.89
48718;BME280;34521;33.042;-96.586;2024-01-30T07:25:07;100312.87;;;25.70;19.81
48718;BME280;34521;33.042;-96.586;2024-01-30T07:27:32;100304.20;;;25.05;20.30
48718;BME280;34521;33.042;-96.586;2024-01-30T07:29:56;100300.98;;;25.37;20.05
48718;BME280;34521;33.042;-96.586;2024-01-30T07:32:23;100298.69;;;24.86;20.44
48718;BME280;34521;33.042;-96.586;2024-01-30T07:34:47;100296.22;;;25.17;20.23
48718;BME280;34521;33.042;-96.586;2024-01-30T07:37:15;100299.56;;;24.39;20.87
48718;BME280;34521;33.042;-96.586;2024-01-30T07:39:38;100291.18;;;24.56;20.47
48718;BME280;34521;33.042;-96.586;2024-01-30T07:42:04;100290.92;;;25.27;19.67
48718;BME280;34521;33.042;-96.586;2024-01-30T07:44:29;100292.32;;;24.51;20.62
48718;BME280;34521;33.042;-96.586;2024-01-30T07:46:54;100281.90;;;24.78;20.49
48718;BME280;34521;33.042;-96.586;2024-01-30T07:49:19;100277.14;;;24.93;20.31
48718;BME280;34521;33.042;-96.586;2024-01-30T07:51:46;100272.94;;;24.90;20.16
48718;BME280;34521;33.042;-96.586;2024-01-30T07:54:16;100273.96;;;24.32;20.63
48718;BME280;34521;33.042;-96.586;2024-01-30T07:56:36;100272.14;;;23.87;21.17
48718;BME280;34521;33.042;-96.586;2024-01-30T07:59:02;100265.28;;;24.38;20.52
48718;BME280;34521;33.042;-96.586;2024-01-30T08:01:28;100264.05;;;24.60;20.33
48718;BME280;34521;33.042;-96.586;2024-01-30T08:03:53;100262.99;;;25.33;19.97
48718;BME280;34521;33.042;-96.586;2024-01-30T08:06:18;100262.85;;;24.43;20.38
48718;BME280;34521;33.042;-96.586;2024-01-30T08:08:43;100261.66;;;25.01;19.99
48718;BME280;34521;33.042;-96.586;2024-01-30T08:11:08;100258.75;;;24.94;20.20
48718;BME280;34521;33.042;-96.586;2024-01-30T08:13:35;100259.10;;;24.71;20.36
48718;BME280;34521;33.042;-96.586;2024-01-30T08:16:00;100265.41;;;23.78;21.17
48718;BME280;34521;33.042;-96.586;2024-01-30T08:18:24;100268.28;;;24.41;20.66
48718;BME280;34521;33.042;-96.586;2024-01-30T08:20:50;100258.91;;;24.93;20.13
48718;BME280;34521;33.042;-96.586;2024-01-30T08:23:16;100258.46;;;24.69;20.23
48718;BME280;34521;33.042;-96.586;2024-01-30T08:25:41;100258.92;;;24.51;20.43
48718;BME280;34521;33.042;-96.586;2024-01-30T08:28:07;100256.39;;;24.65;20.32
48718;BME280;34521;33.042;-96.586;2024-01-30T08:30:32;100255.41;;;24.79;20.19
48718;BME280;34521;33.042;-96.586;2024-01-30T08:32:57;100253.92;;;24.92;20.06
48718;BME280;34521;33.042;-96.586;2024-01-30T08:35:23;100261.03;;;24.24;20.67
48718;BME280;34521;33.042;-96.586;2024-01-30T08:37:48;100253.81;;;25.03;19.99
48718;BME280;34521;33.042;-96.586;2024-01-30T08:40:13;100254.33;;;24.51;20.37
48718;BME280;34521;33.042;-96.586;2024-01-30T08:42:39;100254.41;;;24.81;20.14
48718;BME280;34521;33.042;-96.586;2024-01-30T08:45:05;100251.71;;;24.64;20.00
48718;BME280;34521;33.042;-96.586;2024-01-30T08:47:29;100253.99;;;24.41;20.43
48718;BME280;34521;33.042;-96.586;2024-01-30T08:49:54;100260.03;;;24.24;20.60
48718;BME280;34521;33.042;-96.586;2024-01-30T08:52:23;100256.99;;;25.54;19.54
48718;BME280;34521;33.042;-96.586;2024-01-30T08:54:47;100261.22;;;24.91;19.95
48718;BME280;34521;33.042;-96.586;2024-01-30T08:57:11;100260.12;;;24.61;20.24
48718;BME280;34521;33.042;-96.586;2024-01-30T08:59:36;100259.67;;;24.76;20.10
48718;BME280;34521;33.042;-96.586;2024-01-30T09:02:02;100262.71;;;24.61;20.18
48718;BME280;34521;33.042;-96.586;2024-01-30T09:04:29;100268.75;;;24.02;20.65
48718;BME280;34521;33.042;-96.586;2024-01-30T09:06:55;100267.76;;;23.73;20.87
48718;BME280;34521;33.042;-96.586;2024-01-30T09:09:20;100264.54;;;25.21;19.87
48718;BME280;34521;33.042;-96.586;2024-01-30T09:11:45;100272.47;;;24.28;20.41
48718;BME280;34521;33.042;-96.586;2024-01-30T09:14:11;100268.92;;;25.33;19.60
48718;BME280;34521;33.042;-96.586;2024-01-30T09:16:35;100267.45;;;25.02;19.79
48718;BME280;34521;33.042;-96.586;2024-01-30T09:19:01;100272.98;;;23.99;20.43
48718;BME280;34521;33.042;-96.586;2024-01-30T09:21:26;100270.81;;;24.13;20.51
48718;BME280;34521;33.042;-96.586;2024-01-30T09:23:54;100264.64;;;23.52;20.80
48718;BME280;34521;33.042;-96.586;2024-01-30T09:26:19;100256.10;;;24.50;20.30
48718;BME280;34521;33.042;-96.586;2024-01-30T09:28:44;100260.51;;;24.37;20.27
48718;BME280;34521;33.042;-96.586;2024-01-30T09:31:10;100251.68;;;24.96;19.85
48718;BME280;34521;33.042;-96.586;2024-01-30T09:33:33;100245.40;;;24.97;19.81
48718;BME280;34521;33.042;-96.586;2024-01-30T09:36:00;100239.33;;;25.27;19.56
48718;BME280;34521;33.042;-96.586;2024-01-30T09:38:25;100247.26;;;23.00;21.37
48718;BME280;34521;33.042;-96.586;2024-01-30T09:40:54;100240.95;;;23.69;20.85
48718;BME280;34521;33.042;-96.586;2024-01-30T09:43:18;100233.74;;;24.30;20.08
48718;BME280;34521;33.042;-96.586;2024-01-30T09:45:44;100234.93;;;24.42;20.43
48718;BME280;34521;33.042;-96.586;2024-01-30T09:48:06;100228.20;;;24.96;19.73
48718;BME280;34521;33.042;-96.586;2024-01-30T09:50:32;100232.17;;;23.95;20.35
48718;BME280;34521;33.042;-96.586;2024-01-30T09:52:58;100237.14;;;23.64;20.80
48718;BME280;34521;33.042;-96.586;2024-01-30T09:55:23;100232.75;;;24.88;19.86
48718;BME280;34521;33.042;-96.586;2024-01-30T09:57:49;100234.09;;;24.52;20.01
48718;BME280;34521;33.042;-96.586;2024-01-30T10:00:14;100232.81;;;24.52;19.84
48718;BME280;34521;33.042;-96.586;2024-01-30T10:02:38;100232.75;;;24.60;19.96
48718;BME280;34521;33.042;-96.586;2024-01-30T10:05:03;100232.88;;;25.10;19.57
48718;BME280;34521;33.042;-96.586;2024-01-30T10:07:29;100237.40;;;23.98;20.41
48718;BME280;34521;33.042;-96.586;2024-01-30T10:09:54;100238.88;;;23.75;20.47
48718;BME280;34521;33.042;-96.586;2024-01-30T10:12:19;100230.78;;;24.14;20.06
48718;BME280;34521;33.042;-96.586;2024-01-30T10:14:45;100237.51;;;24.22;20.16
48718;BME280;34521;33.042;-96.586;2024-01-30T10:17:12;100234.11;;;24.59;19.94
48718;BME280;34521;33.042;-96.586;2024-01-30T10:19:37;100235.39;;;24.34;20.07
48718;BME280;34521;33.042;-96.586;2024-01-30T10:22:02;100243.14;;;23.88;20.26
48718;BME280;34521;33.042;-96.586;2024-01-30T10:24:28;100242.71;;;23.81;20.34
48718;BME280;34521;33.042;-96.586;2024-01-30T10:26:54;100240.82;;;23.81;20.31
48718;BME280;34521;33.042;-96.586;2024-01-30T10:29:18;100240.89;;;24.25;20.23
48718;BME280;34521;33.042;-96.586;2024-01-30T10:31:46;100238.99;;;25.06;19.52
48718;BME280;34521;33.042;-96.586;2024-01-30T10:34:10;100244.78;;;24.00;20.34
48718;BME280;34521;33.042;-96.586;2024-01-30T10:36:40;100247.13;;;24.03;20.34
48718;BME280;34521;33.042;-96.586;2024-01-30T10:39:03;100242.08;;;25.13;19.66
48718;BME280;34521;33.042;-96.586;2024-01-30T10:41:28;100245.68;;;24.30;20.02
48718;BME280;34521;33.042;-96.586;2024-01-30T10:43:58;100244.00;;;24.72;19.74
48718;BME280;34521;33.042;-96.586;2024-01-30T10:46:19;100246.82;;;24.66;19.77
48718;BME280;34521;33.042;-96.586;2024-01-30T10:48:46;100247.03;;;24.45;19.88
48718;BME280;34521;33.042;-96.586;2024-01-30T10:51:09;100247.02;;;24.45;19.88
48718;BME280;34521;33.042;-96.586;2024-01-30T10:53:34;100254.91;;;23.98;20.27
48718;BME280;34521;33.042;-96.586;2024-01-30T10:55:59;100255.88;;;24.01;20.18
48718;BME280;34521;33.042;-96.586;2024-01-30T10:58:24;100253.10;;;23.96;20.22
48718;BME280;34521;33.042;-96.586;2024-01-30T11:00:51;100247.76;;;24.49;19.85
48718;BME280;34521;33.042;-96.586;2024-01-30T11:03:15;100249.65;;;24.33;19.91
48718;BME280;34521;33.042;-96.586;2024-01-30T11:05:41;100253.20;;;24.48;20.01
48718;BME280;34521;33.042;-96.586;2024-01-30T11:08:12;100255.98;;;23.65;20.46
48718;BME280;34521;33.042;-96.586;2024-01-30T11:10:32;100258.01;;;23.92;20.29
48718;BME280;34521;33.042;-96.586;2024-01-30T11:12:58;100260.89;;;23.81;20.35
48718;BME280;34521;33.042;-96.586;2024-01-30T11:15:21;100258.08;;;24.11;20.05
48718;BME280;34521;33.042;-96.586;2024-01-30T11:17:51;100257.71;;;23.96;20.14
48718;BME280;34521;33.042;-96.586;2024-01-30T11:20:16;100258.42;;;23.85;20.30
48718;BME280;34521;33.042;-96.586;2024-01-30T11:22:40;100250.60;;;24.36;19.90
48718;BME280;34521;33.042;-96.586;2024-01-30T11:25:04;100256.02;;;24.34;20.03
48718;BME280;34521;33.042;-96.586;2024-01-30T11:27:31;100254.35;;;24.26;19.93
48718;BME280;34521;33.042;-96.586;2024-01-30T11:30:01;100249.15;;;24.50;19.71
48718;BME280;34521;33.042;-96.586;2024-01-30T11:32:23;100252.44;;;24.33;19.79
48718;BME280;34521;33.042;-96.586;2024-01-30T11:34:46;100256.80;;;24.15;19.92
48718;BME280;34521;33.042;-96.586;2024-01-30T11:37:12;100255.94;;;23.97;20.29
48718;BME280;34521;33.042;-96.586;2024-01-30T11:39:37;100257.45;;;23.99;20.09
48718;BME280;34521;33.042;-96.586;2024-01-30T11:42:06;100259.27;;;24.03;19.96
48718;BME280;34521;33.042;-96.586;2024-01-30T11:44:28;100261.65;;;24.00;20.05
48718;BME280;34521;33.042;-96.586;2024-01-30T11:46:54;100261.68;;;24.24;19.80
48718;BME280;34521;33.042;-96.586;2024-01-30T11:49:19;100260.51;;;23.78;20.14
48718;BME280;34521;33.042;-96.586;2024-01-30T11:51:46;100260.60;;;23.68;20.23
48718;BME280;34521;33.042;-96.586;2024-01-30T11:54:10;100260.57;;;23.86;20.10
48718;BME280;34521;33.042;-96.586;2024-01-30T11:56:37;100260.24;;;23.91;20.10
48718;BME280;34521;33.042;-96.586;2024-01-30T11:59:02;100259.95;;;24.02;20.16
48718;BME280;34521;33.042;-96.586;2024-01-30T12:01:26;100258.85;;;23.72;20.22
48718;BME280;34521;33.042;-96.586;2024-01-30T12:03:52;100255.39;;;24.00;20.01
48718;BME280;34521;33.042;-96.586;2024-01-30T12:06:17;100251.59;;;23.98;19.81
48718;BME280;34521;33.042;-96.586;2024-01-30T12:11:09;100249.63;;;23.82;20.09
48718;BME280;34521;33.042;-96.586;2024-01-30T12:13:36;100250.65;;;23.97;20.01
48718;BME280;34521;33.042;-96.586;2024-01-30T12:16:00;100255.75;;;23.38;20.43
48718;BME280;34521;33.042;-96.586;2024-01-30T12:18:25;100254.13;;;24.10;19.89
48718;BME280;34521;33.042;-96.586;2024-01-30T12:20:58;100247.48;;;24.51;19.55
48718;BME280;34521;33.042;-96.586;2024-01-30T12:23:18;100252.48;;;24.06;19.87